Terminal Aerodrome Forecast
Issued by NWS Goodland, KS

Home | Current Version | Previous Version | Text Only | Print | Product List | Glossary On
Versions: 1 2 3 4 5 6 7 8 9 10 11 12 13 14 15 16
000
FTUS43 KGLD 311022 AAA
TAFGLD
TAF AMD
KGLD 311022Z 3110/0106 20010KT 3SM BR SKC
      TEMPO 3110/3114 1/2SM FG
     FM311500 22006KT P6SM SCT200
     FM311800 17007KT P6SM FEW250
     FM312200 15011KT P6SM SCT250
     FM010000 15010KT P6SM SCT250=

USA.gov is the U.S. government's official web portal to all federal, state and local government web resources and services.